San Luis Valley Regional Bergman Field Alamosa US
ICAO: KALS
IATA: ALS
Category: Medium
Scheduled Services: No

Elevation: 7539 ft
TransAlt. 18000 ft.

Airport Communications:
ASOS:135.175
DENVER CNTR:128.375
DENVER RDO:122.15
CTAF/UNICOM:122.8

KALS Zoom In..

Runways:

(A) RW 02 length 8519 ft width 100 ft
ILS 111.90 / hdg 23

(B) RW 20 length 8519 ft width 100 ft
---- / hdg 203

Location; KALS
Day. 23 / Time. 06.52 Zulu
* Altimeter: 30.39
* Temperature: 19° c. 66.2°f.
* Wind from: 080° Speed 11 kn.
Dewpoint: 09° c.
Visibility: 10 Statute Miles.
Clouds: Few 1000 ft.

KALS 230652Z AUTO 08011KT 10SM FEW100 19/09 A3039 RMK AO2 SLP168 T01940089 403280117


Wind From 080°
Speed 11 kn.

 
 
jpsmedia.com for Web Design worldairports.se 2018   terms of use